sensor_id;sensor_type;location;lat;lon;timestamp;temperature;humidity
53695;DHT22;39588;51.124;7.190;2023-07-29T00:04:32;18.20;99.90
53695;DHT22;39588;51.124;7.190;2023-07-29T00:06:57;18.20;99.90
53695;DHT22;39588;51.124;7.190;2023-07-29T00:09:23;18.20;99.90
53695;DHT22;39588;51.124;7.190;2023-07-29T00:16:41;18.30;99.90
53695;DHT22;39588;51.124;7.190;2023-07-29T00:26:27;18.30;99.90
53695;DHT22;39588;51.124;7.190;2023-07-29T00:28:55;18.40;99.90
53695;DHT22;39588;51.124;7.190;2023-07-29T00:31:21;18.40;99.90
53695;DHT22;39588;51.124;7.190;2023-07-29T00:33:46;18.40;99.90
53695;DHT22;39588;51.124;7.190;2023-07-29T00:36:12;18.40;99.90
53695;DHT22;39588;51.124;7.190;2023-07-29T00:41:03;18.40;99.90
53695;DHT22;39588;51.124;7.190;2023-07-29T00:48:23;18.40;99.90
53695;DHT22;39588;51.124;7.190;2023-07-29T00:50:50;18.40;99.90
53695;DHT22;39588;51.124;7.190;2023-07-29T01:00:34;18.30;99.90
53695;DHT22;39588;51.124;7.190;2023-07-29T01:05:31;18.40;99.90
53695;DHT22;39588;51.124;7.190;2023-07-29T01:08:17;18.40;99.90
53695;DHT22;39588;51.124;7.190;2023-07-29T01:10:58;18.30;99.90
53695;DHT22;39588;51.124;7.190;2023-07-29T01:13:40;18.40;99.90
53695;DHT22;39588;51.124;7.190;2023-07-29T01:16:20;18.40;99.90
53695;DHT22;39588;51.124;7.190;2023-07-29T01:18:50;18.40;99.90
53695;DHT22;39588;51.124;7.190;2023-07-29T01:21:18;18.30;99.90
53695;DHT22;39588;51.124;7.190;2023-07-29T01:23:44;18.30;99.90
53695;DHT22;39588;51.124;7.190;2023-07-29T01:26:10;18.30;99.90
53695;DHT22;39588;51.124;7.190;2023-07-29T01:31:13;18.30;99.90
53695;DHT22;39588;51.124;7.190;2023-07-29T01:34:06;18.30;99.90
53695;DHT22;39588;51.124;7.190;2023-07-29T01:36:36;18.20;99.90
53695;DHT22;39588;51.124;7.190;2023-07-29T01:39:05;18.20;99.90
53695;DHT22;39588;51.124;7.190;2023-07-29T01:41:31;18.20;99.90
53695;DHT22;39588;51.124;7.190;2023-07-29T01:43:57;18.10;99.90
53695;DHT22;39588;51.124;7.190;2023-07-29T01:46:23;18.30;99.90
53695;DHT22;39588;51.124;7.190;2023-07-29T01:48:48;18.30;99.90
53695;DHT22;39588;51.124;7.190;2023-07-29T01:51:14;18.30;99.90
53695;DHT22;39588;51.124;7.190;2023-07-29T01:56:06;18.30;99.90
53695;DHT22;39588;51.124;7.190;2023-07-29T01:58:31;18.30;99.90
53695;DHT22;39588;51.124;7.190;2023-07-29T02:00:57;18.30;99.90
53695;DHT22;39588;51.124;7.190;2023-07-29T02:03:22;18.30;99.90
53695;DHT22;39588;51.124;7.190;2023-07-29T02:13:08;18.30;99.90
53695;DHT22;39588;51.124;7.190;2023-07-29T02:15:33;18.30;99.90
53695;DHT22;39588;51.124;7.190;2023-07-29T02:17:59;18.30;99.90
53695;DHT22;39588;51.124;7.190;2023-07-29T02:20:26;18.30;99.90
53695;DHT22;39588;51.124;7.190;2023-07-29T02:25:18;18.30;99.90
53695;DHT22;39588;51.124;7.190;2023-07-29T02:27:43;18.30;99.90
53695;DHT22;39588;51.124;7.190;2023-07-29T02:44:47;18.30;99.90
53695;DHT22;39588;51.124;7.190;2023-07-29T02:47:12;18.30;99.90
53695;DHT22;39588;51.124;7.190;2023-07-29T02:49:38;18.40;99.90
53695;DHT22;39588;51.124;7.190;2023-07-29T02:56:56;18.40;99.90
53695;DHT22;39588;51.124;7.190;2023-07-29T03:01:48;18.40;99.90
53695;DHT22;39588;51.124;7.190;2023-07-29T03:04:13;18.40;99.90
53695;DHT22;39588;51.124;7.190;2023-07-29T03:06:39;18.40;99.90
53695;DHT22;39588;51.124;7.190;2023-07-29T03:09:05;18.40;99.90
53695;DHT22;39588;51.124;7.190;2023-07-29T03:16:23;18.40;99.90
53695;DHT22;39588;51.124;7.190;2023-07-29T03:18:49;18.50;99.90
53695;DHT22;39588;51.124;7.190;2023-07-29T03:21:15;18.50;99.90
53695;DHT22;39588;51.124;7.190;2023-07-29T03:28:40;18.50;99.90
53695;DHT22;39588;51.124;7.190;2023-07-29T03:31:06;18.50;99.90
53695;DHT22;39588;51.124;7.190;2023-07-29T03:33:32;18.40;99.90
53695;DHT22;39588;51.124;7.190;2023-07-29T03:35:57;18.50;99.90
53695;DHT22;39588;51.124;7.190;2023-07-29T03:40:51;18.50;99.90
53695;DHT22;39588;51.124;7.190;2023-07-29T03:43:16;18.50;99.90
53695;DHT22;39588;51.124;7.190;2023-07-29T03:45:42;18.50;99.90
53695;DHT22;39588;51.124;7.190;2023-07-29T03:48:08;18.50;99.90
53695;DHT22;39588;51.124;7.190;2023-07-29T03:50:35;18.50;99.90
53695;DHT22;39588;51.124;7.190;2023-07-29T03:53:02;18.50;99.90
53695;DHT22;39588;51.124;7.190;2023-07-29T03:57:56;18.50;99.90
53695;DHT22;39588;51.124;7.190;2023-07-29T04:00:21;18.60;99.90
53695;DHT22;39588;51.124;7.190;2023-07-29T04:02:47;18.50;99.90
53695;DHT22;39588;51.124;7.190;2023-07-29T04:07:39;18.60;99.90
53695;DHT22;39588;51.124;7.190;2023-07-29T04:10:05;18.60;99.90
53695;DHT22;39588;51.124;7.190;2023-07-29T04:12:31;18.60;99.90
53695;DHT22;39588;51.124;7.190;2023-07-29T04:17:23;18.70;99.90
53695;DHT22;39588;51.124;7.190;2023-07-29T04:22:15;18.80;99.90
53695;DHT22;39588;51.124;7.190;2023-07-29T04:29:33;18.80;99.90
53695;DHT22;39588;51.124;7.190;2023-07-29T04:34:27;18.80;99.90
53695;DHT22;39588;51.124;7.190;2023-07-29T04:36:52;18.80;99.90
53695;DHT22;39588;51.124;7.190;2023-07-29T04:41:44;18.80;99.90
53695;DHT22;39588;51.124;7.190;2023-07-29T04:44:10;18.70;99.90
53695;DHT22;39588;51.124;7.190;2023-07-29T04:46:36;18.80;99.90
53695;DHT22;39588;51.124;7.190;2023-07-29T04:49:02;18.80;99.90
53695;DHT22;39588;51.124;7.190;2023-07-29T04:51:28;18.70;99.90
53695;DHT22;39588;51.124;7.190;2023-07-29T05:06:05;18.60;99.90
53695;DHT22;39588;51.124;7.190;2023-07-29T05:08:31;18.50;99.90
53695;DHT22;39588;51.124;7.190;2023-07-29T05:10:56;18.50;99.90
53695;DHT22;39588;51.124;7.190;2023-07-29T05:13:22;18.60;99.90
53695;DHT22;39588;51.124;7.190;2023-07-29T05:15:49;18.60;99.90
53695;DHT22;39588;51.124;7.190;2023-07-29T05:18:15;18.60;99.90
53695;DHT22;39588;51.124;7.190;2023-07-29T05:20:42;18.60;99.90
53695;DHT22;39588;51.124;7.190;2023-07-29T05:23:07;18.60;99.90
53695;DHT22;39588;51.124;7.190;2023-07-29T05:25:33;18.60;99.90
53695;DHT22;39588;51.124;7.190;2023-07-29T05:28:02;18.60;99.90
53695;DHT22;39588;51.124;7.190;2023-07-29T05:30:28;18.60;99.90
53695;DHT22;39588;51.124;7.190;2023-07-29T05:32:57;18.60;99.90
53695;DHT22;39588;51.124;7.190;2023-07-29T05:35:23;18.70;99.90
53695;DHT22;39588;51.124;7.190;2023-07-29T05:45:07;18.80;99.90
53695;DHT22;39588;51.124;7.190;2023-07-29T05:47:33;18.90;99.90
53695;DHT22;39588;51.124;7.190;2023-07-29T05:52:32;18.80;99.90
53695;DHT22;39588;51.124;7.190;2023-07-29T05:54:58;18.70;99.90
53695;DHT22;39588;51.124;7.190;2023-07-29T05:57:23;18.70;99.90
53695;DHT22;39588;51.124;7.190;2023-07-29T06:02:15;18.60;99.90
53695;DHT22;39588;51.124;7.190;2023-07-29T06:04:41;18.50;99.90
53695;DHT22;39588;51.124;7.190;2023-07-29T06:07:06;18.50;99.90
53695;DHT22;39588;51.124;7.190;2023-07-29T06:09:32;18.60;99.90
53695;DHT22;39588;51.124;7.190;2023-07-29T06:16:49;18.60;99.90
53695;DHT22;39588;51.124;7.190;2023-07-29T06:19:15;18.70;99.90
53695;DHT22;39588;51.124;7.190;2023-07-29T06:21:41;18.60;99.90
53695;DHT22;39588;51.124;7.190;2023-07-29T06:24:06;18.60;99.90
53695;DHT22;39588;51.124;7.190;2023-07-29T06:28:58;18.60;99.90
53695;DHT22;39588;51.124;7.190;2023-07-29T06:31:24;18.50;99.90
53695;DHT22;39588;51.124;7.190;2023-07-29T06:33:49;18.50;99.90
53695;DHT22;39588;51.124;7.190;2023-07-29T06:36:15;18.50;99.90
53695;DHT22;39588;51.124;7.190;2023-07-29T06:41:07;18.50;99.90
53695;DHT22;39588;51.124;7.190;2023-07-29T06:43:32;18.50;99.90
53695;DHT22;39588;51.124;7.190;2023-07-29T06:45:58;18.40;99.90
53695;DHT22;39588;51.124;7.190;2023-07-29T06:48:24;18.40;99.90
53695;DHT22;39588;51.124;7.190;2023-07-29T06:50:50;18.30;99.90
53695;DHT22;39588;51.124;7.190;2023-07-29T06:53:16;18.30;99.90
53695;DHT22;39588;51.124;7.190;2023-07-29T06:55:42;18.30;99.90
53695;DHT22;39588;51.124;7.190;2023-07-29T06:58:08;18.20;99.90
53695;DHT22;39588;51.124;7.190;2023-07-29T07:00:34;18.20;99.90
53695;DHT22;39588;51.124;7.190;2023-07-29T07:02:59;18.20;99.90
53695;DHT22;39588;51.124;7.190;2023-07-29T07:10:17;18.20;99.90
53695;DHT22;39588;51.124;7.190;2023-07-29T07:12:43;18.30;99.90
53695;DHT22;39588;51.124;7.190;2023-07-29T07:15:08;18.30;99.90
53695;DHT22;39588;51.124;7.190;2023-07-29T07:17:34;18.40;99.90
53695;DHT22;39588;51.124;7.190;2023-07-29T07:20:00;18.60;99.90
53695;DHT22;39588;51.124;7.190;2023-07-29T07:24:51;19.10;99.90
53695;DHT22;39588;51.124;7.190;2023-07-29T07:27:17;19.30;99.90
53695;DHT22;39588;51.124;7.190;2023-07-29T07:29:43;19.50;99.90
53695;DHT22;39588;51.124;7.190;2023-07-29T07:32:08;19.50;99.90
53695;DHT22;39588;51.124;7.190;2023-07-29T07:34:34;19.60;99.90
53695;DHT22;39588;51.124;7.190;2023-07-29T07:37:00;19.70;99.90
53695;DHT22;39588;51.124;7.190;2023-07-29T07:39:26;20.00;99.90
53695;DHT22;39588;51.124;7.190;2023-07-29T07:41:52;20.20;99.90
53695;DHT22;39588;51.124;7.190;2023-07-29T07:44:17;20.50;99.90
53695;DHT22;39588;51.124;7.190;2023-07-29T07:51:38;20.00;99.90
53695;DHT22;39588;51.124;7.190;2023-07-29T07:54:03;19.90;99.90
53695;DHT22;39588;51.124;7.190;2023-07-29T07:56:29;20.00;99.90
53695;DHT22;39588;51.124;7.190;2023-07-29T08:03:47;20.10;99.90
53695;DHT22;39588;51.124;7.190;2023-07-29T08:06:12;20.40;99.90
53695;DHT22;39588;51.124;7.190;2023-07-29T08:08:38;20.70;99.90
53695;DHT22;39588;51.124;7.190;2023-07-29T08:13:29;21.10;99.90
53695;DHT22;39588;51.124;7.190;2023-07-29T08:15:55;21.00;99.90
53695;DHT22;39588;51.124;7.190;2023-07-29T08:18:20;20.90;99.90
53695;DHT22;39588;51.124;7.190;2023-07-29T08:20:54;20.80;99.90
53695;DHT22;39588;51.124;7.190;2023-07-29T08:23:21;20.80;99.90
53695;DHT22;39588;51.124;7.190;2023-07-29T08:26:02;20.80;99.90
53695;DHT22;39588;51.124;7.190;2023-07-29T08:28:38;20.90;99.90
53695;DHT22;39588;51.124;7.190;2023-07-29T08:31:05;21.00;99.90
53695;DHT22;39588;51.124;7.190;2023-07-29T08:33:31;21.10;99.90
53695;DHT22;39588;51.124;7.190;2023-07-29T08:35:59;21.00;99.90
53695;DHT22;39588;51.124;7.190;2023-07-29T08:38:25;21.00;99.90
53695;DHT22;39588;51.124;7.190;2023-07-29T08:46:33;20.50;99.90
53695;DHT22;39588;51.124;7.190;2023-07-29T08:48:59;20.60;99.90
53695;DHT22;39588;51.124;7.190;2023-07-29T08:51:27;20.80;99.90
53695;DHT22;39588;51.124;7.190;2023-07-29T08:53:53;20.90;99.90
53695;DHT22;39588;51.124;7.190;2023-07-29T08:56:19;21.30;99.90
53695;DHT22;39588;51.124;7.190;2023-07-29T08:58:45;21.70;99.90
53695;DHT22;39588;51.124;7.190;2023-07-29T09:01:11;21.80;99.40
53695;DHT22;39588;51.124;7.190;2023-07-29T09:03:37;21.60;99.30
53695;DHT22;39588;51.124;7.190;2023-07-29T09:06:03;21.60;99.80
53695;DHT22;39588;51.124;7.190;2023-07-29T09:08:29;21.60;99.90
53695;DHT22;39588;51.124;7.190;2023-07-29T09:10:55;21.70;99.90
53695;DHT22;39588;51.124;7.190;2023-07-29T09:13:21;21.80;99.90
53695;DHT22;39588;51.124;7.190;2023-07-29T09:15:47;21.90;99.90
53695;DHT22;39588;51.124;7.190;2023-07-29T09:18:18;21.90;99.90
53695;DHT22;39588;51.124;7.190;2023-07-29T09:20:47;21.80;99.90
53695;DHT22;39588;51.124;7.190;2023-07-29T09:23:13;21.80;99.90
53695;DHT22;39588;51.124;7.190;2023-07-29T09:25:39;21.90;99.90
53695;DHT22;39588;51.124;7.190;2023-07-29T09:28:10;21.90;99.90
53695;DHT22;39588;51.124;7.190;2023-07-29T09:30:39;21.90;99.90
53695;DHT22;39588;51.124;7.190;2023-07-29T09:33:06;22.10;99.90
53695;DHT22;39588;51.124;7.190;2023-07-29T09:35:36;22.30;99.90
53695;DHT22;39588;51.124;7.190;2023-07-29T09:38:03;22.50;99.90
53695;DHT22;39588;51.124;7.190;2023-07-29T09:40:40;22.40;99.70
53695;DHT22;39588;51.124;7.190;2023-07-29T09:43:07;22.30;99.80
53695;DHT22;39588;51.124;7.190;2023-07-29T09:45:35;22.30;99.40
53695;DHT22;39588;51.124;7.190;2023-07-29T09:48:02;22.40;99.90
53695;DHT22;39588;51.124;7.190;2023-07-29T09:52:55;22.60;99.80
53695;DHT22;39588;51.124;7.190;2023-07-29T09:55:22;22.90;99.40
53695;DHT22;39588;51.124;7.190;2023-07-29T09:57:53;23.30;99.50
53695;DHT22;39588;51.124;7.190;2023-07-29T10:00:19;23.30;99.10
53695;DHT22;39588;51.124;7.190;2023-07-29T10:02:45;23.60;99.20
53695;DHT22;39588;51.124;7.190;2023-07-29T10:05:11;23.90;98.60
53695;DHT22;39588;51.124;7.190;2023-07-29T10:07:37;24.30;98.90
53695;DHT22;39588;51.124;7.190;2023-07-29T10:10:04;24.80;98.20
53695;DHT22;39588;51.124;7.190;2023-07-29T10:12:31;25.30;97.60
53695;DHT22;39588;51.124;7.190;2023-07-29T10:15:02;25.10;96.30
53695;DHT22;39588;51.124;7.190;2023-07-29T10:17:29;24.70;97.00
53695;DHT22;39588;51.124;7.190;2023-07-29T10:19:56;24.10;96.90
53695;DHT22;39588;51.124;7.190;2023-07-29T10:22:27;23.70;97.70
53695;DHT22;39588;51.124;7.190;2023-07-29T10:24:56;23.50;97.70
53695;DHT22;39588;51.124;7.190;2023-07-29T10:27:25;23.40;98.00
53695;DHT22;39588;51.124;7.190;2023-07-29T10:29:55;23.50;97.90
53695;DHT22;39588;51.124;7.190;2023-07-29T10:32:25;23.80;98.60
53695;DHT22;39588;51.124;7.190;2023-07-29T10:39:55;24.30;97.40
53695;DHT22;39588;51.124;7.190;2023-07-29T10:42:21;24.10;97.40
53695;DHT22;39588;51.124;7.190;2023-07-29T10:44:48;23.90;97.50
53695;DHT22;39588;51.124;7.190;2023-07-29T10:49:56;23.90;98.10
53695;DHT22;39588;51.124;7.190;2023-07-29T10:52:49;23.80;97.10
53695;DHT22;39588;51.124;7.190;2023-07-29T11:00:32;23.30;97.70
53695;DHT22;39588;51.124;7.190;2023-07-29T11:03:05;23.00;98.10
53695;DHT22;39588;51.124;7.190;2023-07-29T11:05:51;22.50;98.30
53695;DHT22;39588;51.124;7.190;2023-07-29T11:08:18;22.10;98.70
53695;DHT22;39588;51.124;7.190;2023-07-29T11:15:39;22.30;99.30
53695;DHT22;39588;51.124;7.190;2023-07-29T11:18:05;22.50;99.60
53695;DHT22;39588;51.124;7.190;2023-07-29T11:20:33;22.60;99.50
53695;DHT22;39588;51.124;7.190;2023-07-29T11:23:03;22.60;99.30
53695;DHT22;39588;51.124;7.190;2023-07-29T11:25:30;22.10;99.40
53695;DHT22;39588;51.124;7.190;2023-07-29T11:28:02;21.90;99.80
53695;DHT22;39588;51.124;7.190;2023-07-29T11:30:28;21.80;99.90
53695;DHT22;39588;51.124;7.190;2023-07-29T11:32:55;22.00;99.90
53695;DHT22;39588;51.124;7.190;2023-07-29T11:35:21;22.40;99.90
53695;DHT22;39588;51.124;7.190;2023-07-29T11:37:49;22.50;99.90
53695;DHT22;39588;51.124;7.190;2023-07-29T11:40:19;22.60;99.90
53695;DHT22;39588;51.124;7.190;2023-07-29T11:42:46;23.00;99.90
53695;DHT22;39588;51.124;7.190;2023-07-29T11:47:38;23.40;99.40
53695;DHT22;39588;51.124;7.190;2023-07-29T11:50:06;23.70;99.20
53695;DHT22;39588;51.124;7.190;2023-07-29T11:52:36;24.00;98.40
53695;DHT22;39588;51.124;7.190;2023-07-29T11:55:04;24.30;98.40
53695;DHT22;39588;51.124;7.190;2023-07-29T11:57:35;24.40;98.00
53695;DHT22;39588;51.124;7.190;2023-07-29T12:00:09;24.30;97.80
53695;DHT22;39588;51.124;7.190;2023-07-29T12:02:42;24.40;97.60
53695;DHT22;39588;51.124;7.190;2023-07-29T12:05:13;24.40;97.50
53695;DHT22;39588;51.124;7.190;2023-07-29T12:07:39;24.40;97.80
53695;DHT22;39588;51.124;7.190;2023-07-29T12:10:05;24.40;97.80
53695;DHT22;39588;51.124;7.190;2023-07-29T12:12:31;24.50;97.60
53695;DHT22;39588;51.124;7.190;2023-07-29T12:14:57;24.30;97.60
53695;DHT22;39588;51.124;7.190;2023-07-29T12:17:23;24.00;97.80
53695;DHT22;39588;51.124;7.190;2023-07-29T12:22:20;23.50;98.00
53695;DHT22;39588;51.124;7.190;2023-07-29T12:24:46;23.50;98.80
53695;DHT22;39588;51.124;7.190;2023-07-29T12:27:13;23.30;99.10
53695;DHT22;39588;51.124;7.190;2023-07-29T12:29:43;23.10;98.80
53695;DHT22;39588;51.124;7.190;2023-07-29T12:34:36;23.00;99.10
53695;DHT22;39588;51.124;7.190;2023-07-29T12:39:32;22.80;98.80
53695;DHT22;39588;51.124;7.190;2023-07-29T12:41:59;22.60;98.90
53695;DHT22;39588;51.124;7.190;2023-07-29T12:44:26;22.80;99.40
53695;DHT22;39588;51.124;7.190;2023-07-29T12:46:52;22.90;99.70
53695;DHT22;39588;51.124;7.190;2023-07-29T12:49:18;22.70;99.70
53695;DHT22;39588;51.124;7.190;2023-07-29T12:51:44;22.40;99.80
53695;DHT22;39588;51.124;7.190;2023-07-29T12:56:36;22.60;99.80
53695;DHT22;39588;51.124;7.190;2023-07-29T12:59:02;22.40;99.90
53695;DHT22;39588;51.124;7.190;2023-07-29T13:01:29;22.40;99.90
53695;DHT22;39588;51.124;7.190;2023-07-29T13:03:55;22.60;99.90
53695;DHT22;39588;51.124;7.190;2023-07-29T13:06:21;22.70;99.60
53695;DHT22;39588;51.124;7.190;2023-07-29T13:08:47;22.70;99.70
53695;DHT22;39588;51.124;7.190;2023-07-29T13:11:14;22.80;99.80
53695;DHT22;39588;51.124;7.190;2023-07-29T13:18:32;22.90;99.30
53695;DHT22;39588;51.124;7.190;2023-07-29T13:23:25;22.70;99.00
53695;DHT22;39588;51.124;7.190;2023-07-29T13:25:51;22.70;99.00
53695;DHT22;39588;51.124;7.190;2023-07-29T13:28:17;22.80;98.60
53695;DHT22;39588;51.124;7.190;2023-07-29T13:35:34;23.00;98.50
53695;DHT22;39588;51.124;7.190;2023-07-29T13:38:01;23.10;98.50
53695;DHT22;39588;51.124;7.190;2023-07-29T13:40:26;23.20;98.40
53695;DHT22;39588;51.124;7.190;2023-07-29T13:42:53;23.10;98.20
53695;DHT22;39588;51.124;7.190;2023-07-29T13:45:19;23.00;98.40
53695;DHT22;39588;51.124;7.190;2023-07-29T13:47:44;22.90;98.80
53695;DHT22;39588;51.124;7.190;2023-07-29T13:50:10;22.80;98.90
53695;DHT22;39588;51.124;7.190;2023-07-29T13:55:04;22.60;99.30
53695;DHT22;39588;51.124;7.190;2023-07-29T14:12:06;23.10;99.90
53695;DHT22;39588;51.124;7.190;2023-07-29T14:34:00;22.70;99.90
53695;DHT22;39588;51.124;7.190;2023-07-29T14:36:26;23.00;99.90
53695;DHT22;39588;51.124;7.190;2023-07-29T14:38:51;23.40;99.90
53695;DHT22;39588;51.124;7.190;2023-07-29T14:41:17;23.80;99.90
53695;DHT22;39588;51.124;7.190;2023-07-29T14:43:43;23.80;99.90
53695;DHT22;39588;51.124;7.190;2023-07-29T14:51:01;23.70;99.90
53695;DHT22;39588;51.124;7.190;2023-07-29T14:53:26;23.90;99.90
53695;DHT22;39588;51.124;7.190;2023-07-29T14:58:18;23.80;99.90
53695;DHT22;39588;51.124;7.190;2023-07-29T15:00:43;23.50;99.90
53695;DHT22;39588;51.124;7.190;2023-07-29T15:08:01;23.10;99.90
53695;DHT22;39588;51.124;7.190;2023-07-29T15:10:27;23.00;99.70
53695;DHT22;39588;51.124;7.190;2023-07-29T15:15:18;22.80;99.60
53695;DHT22;39588;51.124;7.190;2023-07-29T15:17:44;22.80;99.50
53695;DHT22;39588;51.124;7.190;2023-07-29T15:20:11;22.70;98.60
53695;DHT22;39588;51.124;7.190;2023-07-29T15:22:36;22.60;98.60
53695;DHT22;39588;51.124;7.190;2023-07-29T15:25:02;22.40;98.60
53695;DHT22;39588;51.124;7.190;2023-07-29T15:27:28;22.20;98.50
53695;DHT22;39588;51.124;7.190;2023-07-29T15:34:47;22.10;98.90
53695;DHT22;39588;51.124;7.190;2023-07-29T15:39:39;22.30;98.80
53695;DHT22;39588;51.124;7.190;2023-07-29T15:44:33;22.10;98.60
53695;DHT22;39588;51.124;7.190;2023-07-29T15:56:43;22.30;99.10
53695;DHT22;39588;51.124;7.190;2023-07-29T15:59:08;22.40;99.20
53695;DHT22;39588;51.124;7.190;2023-07-29T16:01:34;22.60;99.40
53695;DHT22;39588;51.124;7.190;2023-07-29T16:04:00;23.00;99.10
53695;DHT22;39588;51.124;7.190;2023-07-29T16:06:26;23.30;99.30
53695;DHT22;39588;51.124;7.190;2023-07-29T16:08:55;23.20;99.20
53695;DHT22;39588;51.124;7.190;2023-07-29T16:11:20;22.90;98.80
53695;DHT22;39588;51.124;7.190;2023-07-29T16:13:46;22.70;99.30
53695;DHT22;39588;51.124;7.190;2023-07-29T16:16:12;22.80;99.70
53695;DHT22;39588;51.124;7.190;2023-07-29T16:18:38;22.80;99.40
53695;DHT22;39588;51.124;7.190;2023-07-29T16:23:31;22.80;99.60
53695;DHT22;39588;51.124;7.190;2023-07-29T16:25:58;22.90;99.40
53695;DHT22;39588;51.124;7.190;2023-07-29T16:28:24;23.00;99.50
53695;DHT22;39588;51.124;7.190;2023-07-29T16:30:50;23.00;99.40
53695;DHT22;39588;51.124;7.190;2023-07-29T16:35:41;23.10;99.30
53695;DHT22;39588;51.124;7.190;2023-07-29T16:38:07;23.10;99.30
53695;DHT22;39588;51.124;7.190;2023-07-29T16:40:33;23.30;99.40
53695;DHT22;39588;51.124;7.190;2023-07-29T16:42:59;23.40;99.10
53695;DHT22;39588;51.124;7.190;2023-07-29T16:45:25;23.40;99.10
53695;DHT22;39588;51.124;7.190;2023-07-29T16:52:45;23.50;99.30
53695;DHT22;39588;51.124;7.190;2023-07-29T16:57:37;23.30;98.70
53695;DHT22;39588;51.124;7.190;2023-07-29T17:00:04;23.20;98.90
53695;DHT22;39588;51.124;7.190;2023-07-29T17:04:56;22.90;99.20
53695;DHT22;39588;51.124;7.190;2023-07-29T17:12:14;22.10;99.90
53695;DHT22;39588;51.124;7.190;2023-07-29T17:14:40;22.00;99.90
53695;DHT22;39588;51.124;7.190;2023-07-29T17:17:06;22.00;99.90
53695;DHT22;39588;51.124;7.190;2023-07-29T17:19:32;21.90;99.90
53695;DHT22;39588;51.124;7.190;2023-07-29T17:21:58;21.80;99.90
53695;DHT22;39588;51.124;7.190;2023-07-29T17:24:24;21.70;99.90
53695;DHT22;39588;51.124;7.190;2023-07-29T17:34:09;21.80;99.90
53695;DHT22;39588;51.124;7.190;2023-07-29T17:36:36;21.70;99.90
53695;DHT22;39588;51.124;7.190;2023-07-29T17:46:20;21.60;99.90
53695;DHT22;39588;51.124;7.190;2023-07-29T17:48:46;21.60;99.90
53695;DHT22;39588;51.124;7.190;2023-07-29T17:51:12;21.50;99.90
53695;DHT22;39588;51.124;7.190;2023-07-29T17:53:37;21.30;99.90
53695;DHT22;39588;51.124;7.190;2023-07-29T17:56:03;21.20;99.90
53695;DHT22;39588;51.124;7.190;2023-07-29T17:58:29;21.10;99.90
53695;DHT22;39588;51.124;7.190;2023-07-29T18:01:11;21.00;99.90
53695;DHT22;39588;51.124;7.190;2023-07-29T18:03:36;21.00;99.90
53695;DHT22;39588;51.124;7.190;2023-07-29T18:06:02;20.90;99.90
53695;DHT22;39588;51.124;7.190;2023-07-29T18:08:27;20.80;99.90
53695;DHT22;39588;51.124;7.190;2023-07-29T18:10:53;20.60;99.90
53695;DHT22;39588;51.124;7.190;2023-07-29T18:15:51;20.60;99.90
53695;DHT22;39588;51.124;7.190;2023-07-29T18:18:17;20.60;99.90
53695;DHT22;39588;51.124;7.190;2023-07-29T18:23:09;20.50;99.90
53695;DHT22;39588;51.124;7.190;2023-07-29T18:25:36;20.40;99.90
53695;DHT22;39588;51.124;7.190;2023-07-29T18:32:53;20.20;99.90
53695;DHT22;39588;51.124;7.190;2023-07-29T18:35:19;20.20;99.90
53695;DHT22;39588;51.124;7.190;2023-07-29T18:37:46;20.10;99.90
53695;DHT22;39588;51.124;7.190;2023-07-29T18:40:12;20.10;99.90
53695;DHT22;39588;51.124;7.190;2023-07-29T18:42:39;20.10;99.90
53695;DHT22;39588;51.124;7.190;2023-07-29T18:45:06;20.10;99.90
53695;DHT22;39588;51.124;7.190;2023-07-29T18:52:24;19.90;99.90
53695;DHT22;39588;51.124;7.190;2023-07-29T18:57:17;19.80;99.90
53695;DHT22;39588;51.124;7.190;2023-07-29T18:59:43;19.80;99.90
53695;DHT22;39588;51.124;7.190;2023-07-29T19:02:10;19.70;99.90
53695;DHT22;39588;51.124;7.190;2023-07-29T19:07:01;19.70;99.90
53695;DHT22;39588;51.124;7.190;2023-07-29T19:09:27;19.70;99.90
53695;DHT22;39588;51.124;7.190;2023-07-29T19:11:53;19.70;99.90
53695;DHT22;39588;51.124;7.190;2023-07-29T19:14:19;19.60;99.90
53695;DHT22;39588;51.124;7.190;2023-07-29T19:19:12;19.50;99.90
53695;DHT22;39588;51.124;7.190;2023-07-29T19:21:38;19.40;99.90
53695;DHT22;39588;51.124;7.190;2023-07-29T19:26:29;19.30;99.90
53695;DHT22;39588;51.124;7.190;2023-07-29T19:38:39;19.00;99.90
53695;DHT22;39588;51.124;7.190;2023-07-29T19:41:05;18.90;99.90
53695;DHT22;39588;51.124;7.190;2023-07-29T19:43:31;18.90;99.90
53695;DHT22;39588;51.124;7.190;2023-07-29T19:45:58;18.80;99.90
53695;DHT22;39588;51.124;7.190;2023-07-29T19:48:24;18.80;99.90
53695;DHT22;39588;51.124;7.190;2023-07-29T19:50:50;18.70;99.90
53695;DHT22;39588;51.124;7.190;2023-07-29T19:58:16;18.50;99.90
53695;DHT22;39588;51.124;7.190;2023-07-29T20:00:42;18.50;99.90
53695;DHT22;39588;51.124;7.190;2023-07-29T20:03:07;18.40;99.90
53695;DHT22;39588;51.124;7.190;2023-07-29T20:15:18;18.40;99.90
53695;DHT22;39588;51.124;7.190;2023-07-29T20:17:44;18.40;99.90
53695;DHT22;39588;51.124;7.190;2023-07-29T20:20:10;18.30;99.90
53695;DHT22;39588;51.124;7.190;2023-07-29T20:22:36;18.30;99.90
53695;DHT22;39588;51.124;7.190;2023-07-29T20:25:02;18.30;99.90
53695;DHT22;39588;51.124;7.190;2023-07-29T20:46:56;18.60;99.90
53695;DHT22;39588;51.124;7.190;2023-07-29T20:49:21;18.60;99.90
53695;DHT22;39588;51.124;7.190;2023-07-29T20:51:48;18.50;99.90
53695;DHT22;39588;51.124;7.190;2023-07-29T20:56:39;18.50;99.90
53695;DHT22;39588;51.124;7.190;2023-07-29T20:59:05;18.40;99.90
53695;DHT22;39588;51.124;7.190;2023-07-29T21:01:31;18.40;99.90
53695;DHT22;39588;51.124;7.190;2023-07-29T21:08:48;18.20;99.90
53695;DHT22;39588;51.124;7.190;2023-07-29T21:13:40;18.30;99.90
53695;DHT22;39588;51.124;7.190;2023-07-29T21:16:06;18.30;99.90
53695;DHT22;39588;51.124;7.190;2023-07-29T21:25:50;18.40;99.90
53695;DHT22;39588;51.124;7.190;2023-07-29T21:28:17;18.40;99.90
53695;DHT22;39588;51.124;7.190;2023-07-29T21:52:39;18.20;99.90
53695;DHT22;39588;51.124;7.190;2023-07-29T21:55:05;18.10;99.90
53695;DHT22;39588;51.124;7.190;2023-07-29T21:57:31;18.10;99.90
53695;DHT22;39588;51.124;7.190;2023-07-29T21:59:57;18.10;99.90
53695;DHT22;39588;51.124;7.190;2023-07-29T22:12:07;18.10;99.90
53695;DHT22;39588;51.124;7.190;2023-07-29T22:14:33;18.20;99.90
53695;DHT22;39588;51.124;7.190;2023-07-29T22:16:58;18.20;99.90
53695;DHT22;39588;51.124;7.190;2023-07-29T22:19:24;18.20;99.90
53695;DHT22;39588;51.124;7.190;2023-07-29T22:21:50;18.20;99.90
53695;DHT22;39588;51.124;7.190;2023-07-29T22:24:18;18.20;99.90
53695;DHT22;39588;51.124;7.190;2023-07-29T22:26:45;18.20;99.90
53695;DHT22;39588;51.124;7.190;2023-07-29T22:29:11;18.20;99.90
53695;DHT22;39588;51.124;7.190;2023-07-29T22:31:37;18.10;99.90
53695;DHT22;39588;51.124;7.190;2023-07-29T22:34:03;18.00;99.90